createdAt,value
2023-05-24T00:00:01.054Z,6.70
2023-05-24T00:02:28.927Z,5.00
2023-05-24T00:04:56.289Z,5.00
2023-05-24T00:07:23.403Z,6.10
2023-05-24T00:09:50.597Z,5.50
2023-05-24T00:12:18.015Z,6.20
2023-05-24T00:14:45.593Z,6.20
2023-05-24T00:17:12.942Z,5.40
2023-05-24T00:19:40.417Z,5.80
2023-05-24T00:22:07.625Z,5.80
2023-05-24T00:24:34.959Z,6.10
2023-05-24T00:27:02.274Z,5.90
2023-05-24T00:29:31.554Z,4.20
2023-05-24T00:34:27.821Z,5.20
2023-05-24T00:36:54.863Z,5.30
2023-05-24T00:39:21.936Z,5.30
2023-05-24T00:41:49.302Z,5.80
2023-05-24T00:44:16.465Z,5.90
2023-05-24T00:46:43.612Z,6.20
2023-05-24T00:49:10.734Z,5.50
2023-05-24T00:51:41.049Z,5.40
2023-05-24T00:54:08.232Z,5.90
2023-05-24T00:56:35.798Z,5.70
2023-05-24T00:59:03.529Z,6.20
2023-05-24T01:01:32.131Z,4.60
2023-05-24T01:03:59.729Z,5.00
2023-05-24T01:06:28.261Z,5.20
2023-05-24T01:09:24.160Z,5.20
2023-05-24T01:12:15.819Z,5.30
2023-05-24T01:14:55.372Z,5.60
2023-05-24T01:17:36.592Z,6.00
2023-05-24T01:20:07.098Z,5.80
2023-05-24T01:23:11.981Z,6.00
2023-05-24T01:26:09.619Z,6.00
2023-05-24T01:28:36.843Z,6.00
2023-05-24T01:31:04.099Z,4.70
2023-05-24T01:33:31.303Z,4.60
2023-05-24T01:35:58.400Z,5.20
2023-05-24T01:38:25.554Z,5.60
2023-05-24T01:40:53.647Z,5.60
2023-05-24T01:43:43.747Z,6.30
2023-05-24T01:46:28.651Z,5.90
2023-05-24T01:49:27.415Z,6.00
2023-05-24T01:52:05.321Z,5.80
2023-05-24T01:54:34.151Z,6.20
2023-05-24T01:57:01.201Z,4.30
2023-05-24T01:59:28.990Z,4.60
2023-05-24T02:01:56.573Z,5.60
2023-05-24T02:04:23.749Z,5.70
2023-05-24T02:06:51.098Z,5.40
2023-05-24T02:09:18.452Z,5.60
2023-05-24T02:11:45.780Z,6.00
2023-05-24T02:14:13.500Z,5.50
2023-05-24T02:16:47.026Z,6.00
2023-05-24T02:19:14.454Z,6.10
2023-05-24T02:21:41.503Z,4.20
2023-05-24T02:24:15.123Z,4.70
2023-05-24T02:26:42.482Z,5.00
2023-05-24T02:29:09.653Z,5.80
2023-05-24T02:31:37.187Z,5.70
2023-05-24T02:34:04.280Z,5.60
2023-05-24T02:36:34.665Z,5.80
2023-05-24T02:39:02.348Z,5.80
2023-05-24T02:41:29.910Z,5.60
2023-05-24T02:43:57.100Z,5.00
2023-05-24T02:46:24.426Z,4.60
2023-05-24T02:48:51.757Z,5.20
2023-05-24T02:51:18.935Z,5.70
2023-05-24T02:53:46.179Z,5.70
2023-05-24T02:56:14.144Z,5.80
2023-05-24T02:58:41.813Z,5.60
2023-05-24T03:01:09.014Z,6.00
2023-05-24T03:03:36.921Z,5.90
2023-05-24T03:06:07.147Z,6.00
2023-05-24T03:08:34.903Z,4.40
2023-05-24T03:11:02.245Z,4.90
2023-05-24T03:13:29.571Z,5.40
2023-05-24T03:15:56.947Z,5.70
2023-05-24T03:18:24.141Z,5.80
2023-05-24T03:20:52.115Z,5.80
2023-05-24T03:23:21.200Z,6.40
2023-05-24T03:25:49.271Z,6.20
2023-05-24T03:28:16.285Z,6.20
2023-05-24T03:30:44.043Z,5.10
2023-05-24T03:33:11.520Z,4.90
2023-05-24T03:35:39.014Z,6.80
2023-05-24T03:38:06.497Z,6.80
2023-05-24T03:40:34.932Z,7.30
2023-05-24T03:43:05.134Z,13.40
2023-05-24T03:45:50.472Z,11.50
2023-05-24T03:48:21.102Z,14.10
2023-05-24T03:50:48.451Z,16.50
2023-05-24T03:53:16.282Z,13.60
2023-05-24T03:55:43.407Z,15.90
2023-05-24T03:58:12.754Z,11.30
2023-05-24T04:00:40.157Z,9.80
2023-05-24T04:03:07.587Z,10.20
2023-05-24T04:05:35.496Z,11.40
2023-05-24T04:08:03.095Z,9.20
2023-05-24T04:10:30.515Z,8.80
2023-05-24T04:12:57.891Z,7.80
2023-05-24T04:15:25.039Z,7.90
2023-05-24T04:17:55.353Z,8.00
2023-05-24T04:20:27.814Z,8.00
2023-05-24T04:22:56.477Z,6.20
2023-05-24T04:25:24.082Z,6.90
2023-05-24T04:27:51.311Z,7.10
2023-05-24T04:30:18.854Z,7.40
2023-05-24T04:32:46.867Z,7.10
2023-05-24T04:35:14.350Z,7.10
2023-05-24T04:37:41.535Z,6.90
2023-05-24T04:40:09.426Z,6.70
2023-05-24T04:42:36.650Z,6.50
2023-05-24T04:45:04.018Z,7.30
2023-05-24T04:47:31.653Z,7.00
2023-05-24T04:49:58.856Z,6.80
2023-05-24T04:52:26.150Z,6.70
2023-05-24T04:54:55.327Z,6.60
2023-05-24T04:57:22.828Z,6.60
2023-05-24T04:59:49.917Z,6.60
2023-05-24T05:02:20.698Z,7.40
2023-05-24T05:04:47.877Z,6.80
2023-05-24T05:07:15.160Z,7.20
2023-05-24T05:09:42.294Z,7.10
2023-05-24T05:12:09.378Z,6.00
2023-05-24T05:14:36.883Z,5.90
2023-05-24T05:17:04.113Z,5.20
2023-05-24T05:19:31.411Z,5.50
2023-05-24T05:21:58.738Z,5.80
2023-05-24T05:24:25.860Z,6.40
2023-05-24T05:26:53.152Z,5.90
2023-05-24T05:29:21.259Z,5.50
2023-05-24T05:31:50.116Z,6.00
2023-05-24T05:34:17.370Z,6.40
2023-05-24T05:36:44.420Z,8.00
2023-05-24T05:39:11.537Z,8.00
2023-05-24T05:41:39.299Z,12.40
2023-05-24T05:44:06.835Z,8.00
2023-05-24T05:46:34.729Z,8.00
2023-05-24T05:49:01.926Z,10.20
2023-05-24T05:51:29.144Z,8.00
2023-05-24T05:53:56.472Z,7.00
2023-05-24T05:56:23.633Z,7.80
2023-05-24T05:58:50.724Z,6.90
2023-05-24T06:01:17.850Z,6.30
2023-05-24T06:03:45.386Z,6.20
2023-05-24T06:06:12.742Z,5.70
2023-05-24T06:08:41.132Z,5.10
2023-05-24T06:11:08.197Z,5.30
2023-05-24T06:13:36.242Z,5.40
2023-05-24T06:16:03.516Z,5.50
2023-05-24T06:18:32.716Z,8.20
2023-05-24T06:20:59.981Z,5.60
2023-05-24T06:23:27.183Z,4.40
2023-05-24T06:25:54.318Z,4.60
2023-05-24T06:28:22.894Z,4.80
2023-05-24T06:30:49.910Z,4.70
2023-05-24T06:33:17.540Z,4.40
2023-05-24T06:35:44.653Z,4.40
2023-05-24T06:38:12.345Z,4.60
2023-05-24T06:40:40.338Z,5.00
2023-05-24T06:43:08.173Z,4.90
2023-05-24T06:45:35.840Z,4.90
2023-05-24T06:48:03.280Z,4.70
2023-05-24T06:50:30.659Z,4.40
2023-05-24T06:52:58.064Z,4.10
2023-05-24T06:55:25.164Z,4.90
2023-05-24T06:57:52.379Z,4.80
2023-05-24T07:00:20.506Z,5.30
2023-05-24T07:02:47.703Z,4.00
2023-05-24T07:05:15.441Z,4.00
2023-05-24T07:07:42.671Z,4.10
2023-05-24T07:10:13.063Z,4.70
2023-05-24T07:12:40.551Z,4.80
2023-05-24T07:15:08.856Z,4.10
2023-05-24T07:17:36.656Z,4.60
2023-05-24T07:20:07.115Z,3.90
2023-05-24T07:22:34.466Z,5.10
2023-05-24T07:25:01.702Z,4.90
2023-05-24T07:27:29.864Z,4.40
2023-05-24T07:29:57.295Z,4.30
2023-05-24T07:32:24.569Z,5.50
2023-05-24T07:34:52.167Z,4.10
2023-05-24T07:37:19.533Z,4.20
2023-05-24T07:39:46.660Z,4.10
2023-05-24T07:42:14.016Z,4.60
2023-05-24T07:44:41.474Z,4.30
2023-05-24T07:47:08.823Z,4.20
2023-05-24T07:49:36.302Z,4.10
2023-05-24T07:52:04.496Z,4.30
2023-05-24T07:54:31.918Z,4.30
2023-05-24T07:56:59.060Z,4.70
2023-05-24T07:59:26.824Z,4.10
2023-05-24T08:01:54.046Z,4.00
2023-05-24T08:04:21.876Z,4.50
2023-05-24T08:06:49.148Z,4.10
2023-05-24T08:09:16.767Z,4.20
2023-05-24T08:11:43.837Z,4.90
2023-05-24T08:14:11.055Z,4.00
2023-05-24T08:16:38.716Z,4.20
2023-05-24T08:19:06.881Z,4.00
2023-05-24T08:21:34.042Z,3.80
2023-05-24T08:24:01.251Z,4.30
2023-05-24T08:26:28.307Z,3.70
2023-05-24T08:28:56.216Z,4.50
2023-05-24T08:31:23.355Z,4.30
2023-05-24T08:33:51.513Z,4.50
2023-05-24T08:36:18.894Z,4.50
2023-05-24T08:38:46.061Z,3.80
2023-05-24T08:41:13.205Z,4.10
2023-05-24T08:43:40.536Z,4.80
2023-05-24T08:46:07.785Z,3.90
2023-05-24T08:48:47.381Z,4.40
2023-05-24T08:51:16.446Z,4.00
2023-05-24T08:53:48.656Z,4.60
2023-05-24T08:56:19.228Z,6.90
2023-05-24T08:58:47.390Z,4.00
2023-05-24T09:01:15.412Z,3.90
2023-05-24T09:03:42.461Z,4.10
2023-05-24T09:06:10.788Z,3.90
2023-05-24T09:08:38.579Z,3.80
2023-05-24T09:11:05.696Z,4.20
2023-05-24T09:13:32.915Z,4.60
2023-05-24T09:16:00.241Z,4.00
2023-05-24T09:18:27.750Z,3.50
2023-05-24T09:20:57.224Z,3.90
2023-05-24T09:23:26.461Z,3.90
2023-05-24T09:25:53.462Z,4.00
2023-05-24T09:28:21.948Z,5.20
2023-05-24T09:30:58.748Z,3.80
2023-05-24T09:33:32.598Z,3.80
2023-05-24T09:36:00.555Z,4.30
2023-05-24T09:38:28.240Z,4.40
2023-05-24T09:41:13.500Z,8.30
2023-05-24T09:43:49.940Z,4.40
2023-05-24T09:46:23.595Z,3.90
2023-05-24T09:48:58.066Z,6.40
2023-05-24T09:51:25.403Z,17.00
2023-05-24T09:53:53.096Z,6.80
2023-05-24T09:56:20.482Z,7.40
2023-05-24T09:58:47.711Z,5.00
2023-05-24T10:01:16.663Z,7.10
2023-05-24T10:03:57.648Z,4.20
2023-05-24T10:08:40.913Z,4.10
2023-05-24T10:11:08.354Z,3.80
2023-05-24T10:13:36.540Z,4.20
2023-05-24T10:16:04.714Z,3.80
2023-05-24T10:18:32.521Z,4.40
2023-05-24T10:21:01.098Z,4.50
2023-05-24T10:23:32.725Z,3.30
2023-05-24T10:26:07.796Z,4.00
2023-05-24T10:28:53.596Z,4.10
2023-05-24T10:31:34.670Z,3.70
2023-05-24T10:34:07.928Z,3.50
2023-05-24T10:36:37.156Z,4.00
2023-05-24T10:39:04.468Z,3.70
2023-05-24T10:41:39.242Z,4.70
2023-05-24T10:44:10.380Z,3.80
2023-05-24T10:46:38.535Z,3.90
2023-05-24T10:49:08.108Z,3.80
2023-05-24T10:51:38.303Z,3.90
2023-05-24T10:54:13.512Z,3.80
2023-05-24T10:56:50.841Z,3.80
2023-05-24T10:59:37.471Z,4.20
2023-05-24T11:02:08.856Z,3.90
2023-05-24T11:04:43.624Z,3.60
2023-05-24T11:07:11.673Z,3.70
2023-05-24T11:09:46.908Z,3.90
2023-05-24T11:12:18.563Z,4.00
2023-05-24T11:14:52.760Z,3.60
2023-05-24T11:17:23.481Z,4.20
2023-05-24T11:19:52.839Z,4.90
2023-05-24T11:22:22.022Z,3.70
2023-05-24T11:24:49.108Z,4.00
2023-05-24T11:27:16.653Z,6.60
2023-05-24T11:29:45.190Z,4.00
2023-05-24T11:32:16.786Z,3.60
2023-05-24T11:34:47.808Z,5.40
2023-05-24T11:37:17.706Z,3.80
2023-05-24T11:39:49.881Z,3.60
2023-05-24T11:42:17.050Z,3.90
2023-05-24T11:44:44.131Z,3.50
2023-05-24T11:47:12.093Z,4.20
2023-05-24T11:49:39.290Z,4.20
2023-05-24T11:52:07.529Z,4.40
2023-05-24T11:54:40.680Z,3.80
2023-05-24T11:57:07.769Z,4.00
2023-05-24T11:59:38.051Z,3.50
2023-05-24T12:02:08.122Z,3.70
2023-05-24T12:07:03.274Z,4.90
2023-05-24T12:09:30.825Z,4.80
2023-05-24T12:11:58.797Z,3.50
2023-05-24T12:14:33.157Z,3.60
2023-05-24T12:17:01.188Z,3.60
2023-05-24T12:19:36.866Z,3.50
2023-05-24T12:22:06.020Z,3.70
2023-05-24T12:24:34.561Z,3.40
2023-05-24T12:27:03.409Z,3.90
2023-05-24T12:29:38.974Z,3.30
2023-05-24T12:32:11.944Z,3.80
2023-05-24T12:34:45.514Z,3.90
2023-05-24T12:37:13.689Z,3.90
2023-05-24T12:39:43.356Z,4.30
2023-05-24T12:42:15.428Z,4.60
2023-05-24T12:47:09.914Z,3.90
2023-05-24T12:49:37.118Z,3.70
2023-05-24T12:52:04.689Z,4.40
2023-05-24T12:54:32.276Z,4.30
2023-05-24T12:57:09.314Z,3.90
2023-05-24T12:59:37.530Z,3.70
2023-05-24T13:02:04.762Z,4.20
2023-05-24T13:04:33.893Z,4.10
2023-05-24T13:07:03.055Z,3.80
2023-05-24T13:09:30.240Z,4.30
2023-05-24T13:11:57.396Z,4.30
2023-05-24T13:14:27.739Z,4.50
2023-05-24T13:16:55.050Z,4.20
2023-05-24T13:19:22.517Z,4.10
2023-05-24T13:21:49.680Z,3.80
2023-05-24T13:24:17.345Z,4.90
2023-05-24T13:26:45.215Z,3.60
2023-05-24T13:31:45.106Z,3.70
2023-05-24T13:34:12.565Z,4.20
2023-05-24T13:36:40.019Z,4.10
2023-05-24T13:41:40.301Z,4.00
2023-05-24T13:44:07.962Z,4.40
2023-05-24T13:46:36.722Z,4.10
2023-05-24T13:49:04.529Z,4.30
2023-05-24T13:51:31.864Z,3.90
2023-05-24T13:53:59.733Z,4.00
2023-05-24T13:56:32.869Z,4.70
2023-05-24T13:59:03.766Z,4.20
2023-05-24T14:01:31.993Z,4.20
2023-05-24T14:04:01.022Z,4.00
2023-05-24T14:06:28.339Z,4.80
2023-05-24T14:08:55.703Z,4.40
2023-05-24T14:11:24.822Z,4.10
2023-05-24T14:16:22.823Z,3.70
2023-05-24T14:18:51.706Z,3.70
2023-05-24T14:21:19.725Z,4.10
2023-05-24T14:23:48.317Z,4.30
2023-05-24T14:26:15.461Z,5.20
2023-05-24T14:28:42.611Z,5.00
2023-05-24T14:31:09.730Z,4.20
2023-05-24T14:33:38.540Z,4.50
2023-05-24T14:36:06.605Z,4.00
2023-05-24T14:38:33.743Z,4.40
2023-05-24T14:41:01.724Z,3.90
2023-05-24T14:43:28.781Z,3.80
2023-05-24T14:45:56.631Z,4.10
2023-05-24T14:48:23.697Z,8.90
2023-05-24T14:50:50.898Z,5.70
2023-05-24T14:53:18.631Z,4.30
2023-05-24T14:55:46.128Z,4.20
2023-05-24T14:58:13.473Z,4.20
2023-05-24T15:00:41.514Z,4.20
2023-05-24T15:03:09.291Z,3.90
2023-05-24T15:05:39.291Z,4.00
2023-05-24T15:08:08.057Z,3.70
2023-05-24T15:10:35.317Z,4.40
2023-05-24T15:13:03.967Z,4.30
2023-05-24T15:15:31.577Z,4.20
2023-05-24T15:18:00.105Z,4.50
2023-05-24T15:20:27.417Z,4.10
2023-05-24T15:22:54.883Z,3.90
2023-05-24T15:25:22.451Z,4.10
2023-05-24T15:27:49.713Z,4.90
2023-05-24T15:30:19.225Z,4.20
2023-05-24T15:32:46.828Z,4.80
2023-05-24T15:35:14.572Z,4.40
2023-05-24T15:37:42.779Z,4.80
2023-05-24T15:40:10.642Z,4.50
2023-05-24T15:42:37.997Z,4.20
2023-05-24T15:45:05.726Z,4.90
2023-05-24T15:47:38.116Z,4.20
2023-05-24T15:50:07.082Z,4.20
2023-05-24T15:52:35.006Z,3.90
2023-05-24T15:55:02.186Z,4.60
2023-05-24T15:57:29.417Z,4.40
2023-05-24T15:59:56.641Z,4.40
2023-05-24T16:02:24.276Z,4.30
2023-05-24T16:04:51.681Z,4.50
2023-05-24T16:07:19.662Z,4.30
2023-05-24T16:09:47.065Z,4.20
2023-05-24T16:12:14.298Z,4.70
2023-05-24T16:14:41.981Z,4.40
2023-05-24T16:17:09.091Z,4.40
2023-05-24T16:19:36.535Z,4.40
2023-05-24T16:22:04.578Z,4.60
2023-05-24T16:24:31.758Z,4.40
2023-05-24T16:26:59.256Z,4.40
2023-05-24T16:29:26.776Z,4.20
2023-05-24T16:31:53.892Z,5.30
2023-05-24T16:34:23.829Z,4.70
2023-05-24T16:36:51.378Z,4.70
2023-05-24T16:39:18.515Z,4.60
2023-05-24T16:41:46.829Z,4.90
2023-05-24T16:44:18.142Z,4.90
2023-05-24T16:46:45.728Z,5.20
2023-05-24T16:49:13.317Z,4.60
2023-05-24T16:51:40.652Z,4.50
2023-05-24T16:54:09.500Z,4.90
2023-05-24T16:56:37.826Z,4.50
2023-05-24T16:59:05.081Z,4.80
2023-05-24T17:01:32.647Z,4.90
2023-05-24T17:03:59.988Z,4.90
2023-05-24T17:06:27.821Z,4.90
2023-05-24T17:08:55.262Z,4.30
2023-05-24T17:11:23.332Z,4.80
2023-05-24T17:13:51.847Z,4.50
2023-05-24T17:16:19.253Z,5.20
2023-05-24T17:18:46.657Z,5.10
2023-05-24T17:21:13.838Z,5.10
2023-05-24T17:23:41.011Z,6.00
2023-05-24T17:26:08.318Z,5.30
2023-05-24T17:28:36.475Z,5.60
2023-05-24T17:31:04.040Z,5.80
2023-05-24T17:33:32.477Z,5.90
2023-05-24T17:36:09.768Z,8.20
2023-05-24T17:38:37.892Z,12.90
2023-05-24T17:41:07.991Z,13.50
2023-05-24T17:43:36.870Z,11.00
2023-05-24T17:46:07.025Z,9.60
2023-05-24T17:48:39.145Z,9.70
2023-05-24T17:51:07.766Z,9.20
2023-05-24T17:53:35.542Z,7.50
2023-05-24T17:56:02.854Z,7.70
2023-05-24T17:58:36.965Z,7.40
2023-05-24T18:01:05.538Z,7.20
2023-05-24T18:03:37.415Z,8.20
2023-05-24T18:06:06.870Z,11.90
2023-05-24T18:08:36.249Z,12.30
2023-05-24T18:11:08.470Z,12.30
2023-05-24T18:13:37.183Z,12.20
2023-05-24T18:16:04.230Z,11.40
2023-05-24T18:18:31.407Z,11.90
2023-05-24T18:20:58.724Z,12.60
2023-05-24T18:23:26.087Z,10.70
2023-05-24T18:26:01.804Z,11.80
2023-05-24T18:28:30.644Z,12.00
2023-05-24T18:30:57.951Z,11.20
2023-05-24T18:33:25.323Z,11.10
2023-05-24T18:35:52.654Z,10.60
2023-05-24T18:38:19.851Z,11.50
2023-05-24T18:40:47.098Z,10.40
2023-05-24T18:43:14.359Z,9.30
2023-05-24T18:45:41.888Z,10.50
2023-05-24T18:48:09.228Z,8.60
2023-05-24T18:50:37.120Z,9.00
2023-05-24T18:53:04.245Z,9.10
2023-05-24T18:55:31.531Z,8.40
2023-05-24T18:57:58.709Z,8.40
2023-05-24T19:00:26.363Z,8.80
2023-05-24T19:02:55.557Z,8.60
2023-05-24T19:05:22.955Z,9.50
2023-05-24T19:07:50.498Z,9.20
2023-05-24T19:10:17.952Z,10.20
2023-05-24T19:12:45.355Z,15.00
2023-05-24T19:15:12.703Z,10.90
2023-05-24T19:17:40.541Z,10.60
2023-05-24T19:20:08.363Z,10.90
2023-05-24T19:22:35.682Z,9.60
2023-05-24T19:25:03.445Z,10.40
2023-05-24T19:27:31.103Z,11.70
2023-05-24T19:30:00.275Z,12.40
2023-05-24T19:32:27.818Z,12.00
2023-05-24T19:34:55.228Z,12.50
2023-05-24T19:37:22.408Z,11.70
2023-05-24T19:39:49.635Z,12.80
2023-05-24T19:42:16.968Z,14.70
2023-05-24T19:44:44.212Z,11.40
2023-05-24T19:47:11.817Z,11.10
2023-05-24T19:49:38.940Z,10.00
2023-05-24T19:52:06.202Z,10.50
2023-05-24T19:54:34.269Z,10.30
2023-05-24T19:57:02.065Z,7.20
2023-05-24T19:59:29.770Z,7.90
2023-05-24T20:01:57.089Z,8.30
2023-05-24T20:04:24.553Z,8.30
2023-05-24T20:06:52.895Z,8.80
2023-05-24T20:09:20.017Z,9.20
2023-05-24T20:11:47.103Z,9.10
2023-05-24T20:14:14.331Z,9.80
2023-05-24T20:16:42.107Z,8.90
2023-05-24T20:19:09.132Z,9.00
2023-05-24T20:21:39.502Z,8.40
2023-05-24T20:24:06.773Z,8.90
2023-05-24T20:26:35.300Z,8.60
2023-05-24T20:29:02.384Z,8.90
2023-05-24T20:31:30.026Z,8.80
2023-05-24T20:33:58.060Z,12.90
2023-05-24T20:36:25.150Z,13.40
2023-05-24T20:38:52.280Z,14.00
2023-05-24T20:41:19.532Z,12.30
2023-05-24T20:43:47.127Z,13.10
2023-05-24T20:46:14.555Z,11.60
2023-05-24T20:48:43.382Z,11.20
2023-05-24T20:51:10.660Z,9.70
2023-05-24T20:53:38.129Z,9.60
2023-05-24T20:56:05.376Z,9.30
2023-05-24T20:58:34.690Z,9.70
2023-05-24T21:01:01.859Z,9.20
2023-05-24T21:03:30.075Z,7.30
2023-05-24T21:05:57.390Z,7.20
2023-05-24T21:08:24.426Z,8.20
2023-05-24T21:10:51.881Z,8.90
2023-05-24T21:13:20.546Z,8.40
2023-05-24T21:15:47.843Z,8.40
2023-05-24T21:18:15.504Z,8.70
2023-05-24T21:20:42.754Z,9.10
2023-05-24T21:23:10.609Z,9.40
2023-05-24T21:25:37.671Z,8.60
2023-05-24T21:28:04.906Z,9.70
2023-05-24T21:30:32.631Z,7.40
2023-05-24T21:33:00.295Z,7.60
2023-05-24T21:35:28.581Z,8.30
2023-05-24T21:37:56.192Z,9.30
2023-05-24T21:40:23.769Z,8.70
2023-05-24T21:42:51.260Z,8.20
2023-05-24T21:45:18.249Z,9.20
2023-05-24T21:47:45.680Z,8.70
2023-05-24T21:50:12.816Z,9.30
2023-05-24T21:52:40.965Z,9.70
2023-05-24T21:55:08.356Z,7.00
2023-05-24T21:57:36.006Z,7.90
2023-05-24T22:00:04.402Z,8.40
2023-05-24T22:02:34.591Z,8.50
2023-05-24T22:05:01.971Z,10.10
2023-05-24T22:07:29.372Z,9.50
2023-05-24T22:09:56.715Z,10.30
2023-05-24T22:12:23.980Z,11.30
2023-05-24T22:14:51.302Z,11.60
2023-05-24T22:17:19.346Z,12.30
2023-05-24T22:19:48.118Z,10.80
2023-05-24T22:22:19.589Z,11.70
2023-05-24T22:24:47.361Z,13.50
2023-05-24T22:27:14.810Z,13.40
2023-05-24T22:29:41.868Z,13.40
2023-05-24T22:32:09.359Z,13.50
2023-05-24T22:34:36.959Z,13.70
2023-05-24T22:37:04.462Z,14.30
2023-05-24T22:39:31.765Z,14.50
2023-05-24T22:41:58.930Z,14.30
2023-05-24T22:44:26.524Z,11.10
2023-05-24T22:46:54.125Z,12.20
2023-05-24T22:49:21.595Z,13.00
2023-05-24T22:51:50.645Z,13.70
2023-05-24T22:54:17.811Z,14.30
2023-05-24T22:56:44.989Z,14.60
2023-05-24T22:59:12.653Z,14.70
2023-05-24T23:01:39.770Z,15.30
2023-05-24T23:06:39.146Z,12.70
2023-05-24T23:09:06.564Z,14.00
2023-05-24T23:11:35.529Z,15.90
2023-05-24T23:14:02.934Z,15.70
2023-05-24T23:16:31.934Z,16.80
2023-05-24T23:18:59.091Z,20.70
2023-05-24T23:21:26.827Z,20.10
2023-05-24T23:23:56.985Z,20.70
2023-05-24T23:26:23.978Z,21.30
2023-05-24T23:28:51.148Z,16.80
2023-05-24T23:31:18.808Z,16.70
2023-05-24T23:33:46.137Z,12.90
2023-05-24T23:36:13.415Z,11.90
2023-05-24T23:38:41.171Z,10.50
2023-05-24T23:41:08.544Z,11.80
2023-05-24T23:43:37.308Z,16.10
2023-05-24T23:46:04.445Z,16.20
2023-05-24T23:48:31.513Z,14.30
2023-05-24T23:50:58.763Z,15.40
2023-05-24T23:53:26.058Z,18.20
2023-05-24T23:55:53.456Z,19.40
2023-05-24T23:58:20.883Z,16.60
